ePrivacy and GPDR Cookie Consent by Cookie Consent
EmailTwitter


Observations de surface / Québec / CYHU (71371)

Régions: Québec | Canada | États-Unis | Europe | France | UK | Ailleurs
Station
Affichage
Infos & localisation pour CYHU (71371) | Aide pour décoder les METARs

Observations prises le 2022-06-30 à 22H00 UTC à MONTREAL/ST HUBE, QB (CYHU)

Etat du ciel: quelques nuages.

Température: 22.0 Celsius

Point de rosée: 14.0 Celsius

Humidité relative: 60%

Vents: Sud à 13 km/h ou 7 noeuds.

Pression au niveau moyen de la mer: 101.88 kilopascals.

Calage altimétrique: 101.86 kilopascals ou 30.08 pouces de mercure.

Visibilité horizontale: 9.00 milles terrestres ou 14.40 kilomètres.

Observation METAR:

CYHU 302200Z AUTO 17007KT 120V220 9SM FEW140 22/14 A3008 RMK SLP188 DENSITY ALT

800FT=